Time;durP1;ratioP1;P1;durP2;ratioP2;P2;SDS_P1;SDS_P2;PMS_P1;PMS_P2;Temp;Humidity;BMP_temperature;BMP_pressure;BME280_temperature;BME280_humidity;BME280_pressure;Samples;Min_cycle;Max_cycle;Signal;HPM_P1;HPM_P2
2023/07/28 00:01:25;;;;;;;6.88;3.55;;;18.00;99.90;;;;;;5089975;28;20048;-63
2023/07/28 00:03:50;;;;;;;8.43;3.50;;;18.00;99.90;;;;;;5091204;28;20047;-63
2023/07/28 00:06:16;;;;;;;9.63;3.80;;;18.00;99.90;;;;;;5090611;28;20040;-62
2023/07/28 00:08:42;;;;;;;4.93;2.65;;;18.00;99.90;;;;;;5090682;28;20097;-62
2023/07/28 00:11:14;;;;;;;10.80;4.40;;;18.00;99.90;;;;;;5090931;28;20393;-62
2023/07/28 00:13:41;;;;;;;9.70;4.50;;;18.00;99.90;;;;;;5090366;28;20040;-62
2023/07/28 00:16:07;;;;;;;12.57;5.38;;;18.00;99.90;;;;;;5091519;28;20032;-62
2023/07/28 00:18:33;;;;;;;16.00;5.20;;;17.90;99.90;;;;;;5090231;28;20044;-62
2023/07/28 00:21:00;;;;;;;7.75;4.90;;;18.00;99.90;;;;;;5089526;28;20149;-62
2023/07/28 00:23:25;;;;;;;11.70;4.32;;;18.00;99.90;;;;;;5090523;28;20076;-63
2023/07/28 00:25:52;;;;;;;12.10;4.40;;;17.90;99.90;;;;;;5090038;28;20144;-62
2023/07/28 00:28:17;;;;;;;6.00;3.88;;;18.00;99.90;;;;;;5090864;28;20047;-63
2023/07/28 00:30:43;;;;;;;11.63;4.13;;;18.00;99.90;;;;;;5091047;28;20389;-63
2023/07/28 00:33:09;;;;;;;9.35;4.63;;;18.00;99.90;;;;;;5090324;28;20114;-63
2023/07/28 00:35:34;;;;;;;10.45;5.10;;;18.00;99.90;;;;;;5090551;28;20032;-63
2023/07/28 00:38:00;;;;;;;10.27;4.20;;;17.90;99.90;;;;;;5091413;28;20043;-63
2023/07/28 00:40:26;;;;;;;8.25;4.80;;;18.00;99.90;;;;;;5090622;28;20040;-62
2023/07/28 00:42:51;;;;;;;8.82;5.07;;;18.00;99.90;;;;;;5088404;28;20036;-63
2023/07/28 00:45:17;;;;;;;14.23;5.88;;;18.00;99.90;;;;;;5091389;28;20054;-62
2023/07/28 00:47:43;;;;;;;12.32;4.38;;;18.00;99.90;;;;;;5090765;28;20040;-63
2023/07/28 00:50:10;;;;;;;7.60;4.20;;;17.90;99.90;;;;;;5046268;28;1224461;-63
2023/07/28 00:52:37;;;;;;;7.05;3.70;;;18.00;99.90;;;;;;5092128;28;20036;-62
2023/07/28 00:55:03;;;;;;;4.70;2.78;;;18.00;99.90;;;;;;5090835;28;20044;-69
2023/07/28 00:57:28;;;;;;;17.83;4.55;;;18.00;99.90;;;;;;5089850;28;20040;-69
2023/07/28 00:59:54;;;;;;;7.95;4.65;;;18.10;99.90;;;;;;5090606;28;20040;-69
2023/07/28 01:02:21;;;;;;;7.72;4.32;;;18.00;99.90;;;;;;5073921;28;20047;-69
2023/07/28 01:04:48;;;;;;;5.22;3.63;;;18.00;99.90;;;;;;5089647;28;20072;-69
2023/07/28 01:07:21;;;;;;;10.32;4.75;;;18.00;99.90;;;;;;5074245;28;20378;-69
2023/07/28 01:09:50;;;;;;;6.20;4.05;;;18.00;99.90;;;;;;5089322;28;20036;-69
2023/07/28 01:12:16;;;;;;;9.90;4.53;;;17.90;99.90;;;;;;5073799;28;20040;-70
2023/07/28 01:14:44;;;;;;;8.57;4.30;;;18.00;99.90;;;;;;5091026;28;20369;-69
2023/07/28 01:17:10;;;;;;;5.47;3.33;;;18.00;99.90;;;;;;5089916;28;20058;-70
2023/07/28 01:19:36;;;;;;;7.28;3.95;;;18.00;99.90;;;;;;5090526;28;20087;-69
2023/07/28 01:22:17;;;;;;;5.80;2.35;;;18.00;99.90;;;;;;5091731;28;20115;-70
2023/07/28 01:24:58;;;;;;;8.43;3.03;;;17.90;99.90;;;;;;5089195;28;20080;-70
2023/07/28 01:27:24;;;;;;;17.67;7.68;;;17.90;99.90;;;;;;5091833;28;20097;-69
2023/07/28 01:29:50;;;;;;;13.73;6.88;;;18.00;99.90;;;;;;5072728;28;20040;-70
2023/07/28 01:32:16;;;;;;;25.60;7.70;;;18.00;99.90;;;;;;5089874;28;20044;-69
2023/07/28 01:34:42;;;;;;;9.38;6.30;;;17.90;99.90;;;;;;5073299;28;20044;-69
2023/07/28 01:37:08;;;;;;;9.93;5.40;;;17.90;99.90;;;;;;5090337;28;20108;-69
2023/07/28 01:39:33;;;;;;;19.55;6.38;;;18.00;99.90;;;;;;5089538;28;20075;-69
2023/07/28 01:41:59;;;;;;;12.55;6.43;;;18.00;99.90;;;;;;5090199;28;20590;-69
2023/07/28 01:44:25;;;;;;;15.60;6.18;;;17.90;99.90;;;;;;5091913;28;20131;-69
2023/07/28 01:46:50;;;;;;;9.52;5.95;;;18.00;99.90;;;;;;5092851;28;20032;-69
2023/07/28 01:49:16;;;;;;;15.52;7.78;;;17.90;99.90;;;;;;5094122;28;20047;-69
2023/07/28 01:51:42;;;;;;;16.33;7.32;;;17.90;99.90;;;;;;5094611;28;20063;-69
2023/07/28 01:54:07;;;;;;;9.30;6.50;;;17.90;99.90;;;;;;5093320;28;20052;-69
2023/07/28 01:56:33;;;;;;;12.57;6.78;;;17.90;99.90;;;;;;5094746;28;20043;-69
2023/07/28 01:58:59;;;;;;;11.85;7.25;;;17.90;99.90;;;;;;5092561;28;20099;-70
2023/07/28 02:01:24;;;;;;;12.15;6.65;;;17.90;99.90;;;;;;5093803;28;20385;-70
2023/07/28 02:03:50;;;;;;;11.80;5.63;;;17.90;99.90;;;;;;5094206;28;20396;-69
2023/07/28 02:06:16;;;;;;;10.02;5.65;;;17.90;99.90;;;;;;5094292;28;20114;-69
2023/07/28 02:08:41;;;;;;;18.55;6.53;;;17.90;99.90;;;;;;5094231;28;20131;-69
2023/07/28 02:11:07;;;;;;;12.82;4.72;;;17.80;99.90;;;;;;5094655;28;20036;-69
2023/07/28 02:13:33;;;;;;;14.85;6.20;;;17.90;99.90;;;;;;5126394;27;20063;-69
2023/07/28 02:15:58;;;;;;;9.20;5.15;;;17.90;99.90;;;;;;5093620;28;20431;-69
2023/07/28 02:18:24;;;;;;;7.15;4.60;;;17.80;99.90;;;;;;5110475;28;20503;-69
2023/07/28 02:20:50;;;;;;;10.35;4.38;;;17.90;99.90;;;;;;5093354;28;20082;-69
2023/07/28 02:23:16;;;;;;;7.63;4.18;;;17.80;99.90;;;;;;5093438;28;20040;-69
2023/07/28 02:25:41;;;;;;;8.05;3.42;;;17.80;99.90;;;;;;5093844;28;20047;-69
2023/07/28 02:28:09;;;;;;;5.78;2.47;;;17.80;99.90;;;;;;5093790;28;20079;-69
2023/07/28 02:30:35;;;;;;;5.35;2.58;;;17.90;99.90;;;;;;5092234;28;20071;-69
2023/07/28 02:33:01;;;;;;;10.88;3.03;;;17.80;99.90;;;;;;5093956;28;20077;-69
2023/07/28 02:35:27;;;;;;;13.68;6.72;;;17.80;99.90;;;;;;5093199;28;20105;-69
2023/07/28 02:37:52;;;;;;;8.60;4.43;;;17.90;99.90;;;;;;5092939;28;20392;-69
2023/07/28 02:40:18;;;;;;;5.63;2.65;;;17.80;99.90;;;;;;5093058;28;20044;-69
2023/07/28 02:42:43;;;;;;;13.82;3.92;;;17.80;99.90;;;;;;5091588;28;20048;-69
2023/07/28 02:45:10;;;;;;;5.60;3.28;;;17.70;99.90;;;;;;5093206;28;20079;-69
2023/07/28 02:47:36;;;;;;;9.23;3.08;;;17.80;99.90;;;;;;5094226;28;20036;-69
2023/07/28 02:50:03;;;;;;;6.60;3.25;;;17.80;99.90;;;;;;5093275;28;20441;-69
2023/07/28 02:52:28;;;;;;;7.88;3.15;;;17.80;99.90;;;;;;5092467;28;20059;-69
2023/07/28 02:54:55;;;;;;;6.70;2.75;;;17.80;99.90;;;;;;5093224;28;20040;-69
2023/07/28 02:57:20;;;;;;;8.73;2.60;;;17.70;99.90;;;;;;5091586;28;20044;-69
2023/07/28 02:59:46;;;;;;;10.20;3.17;;;17.80;99.90;;;;;;5092439;28;20495;-69
2023/07/28 03:02:12;;;;;;;13.55;2.42;;;17.80;99.90;;;;;;5075631;28;20039;-69
2023/07/28 03:04:37;;;;;;;5.10;2.17;;;17.70;99.90;;;;;;5092600;28;20102;-69
2023/07/28 03:07:03;;;;;;;5.85;3.03;;;17.80;99.90;;;;;;5093665;28;20039;-69
2023/07/28 03:09:29;;;;;;;9.40;2.20;;;17.80;99.90;;;;;;5091227;28;20530;-69
2023/07/28 03:11:55;;;;;;;5.00;2.63;;;17.80;99.90;;;;;;5126292;27;20071;-69
2023/07/28 03:14:20;;;;;;;3.90;2.25;;;17.80;99.90;;;;;;5092694;28;20127;-69
2023/07/28 03:16:46;;;;;;;5.63;2.45;;;17.70;99.90;;;;;;5091234;28;20511;-69
2023/07/28 03:19:12;;;;;;;10.25;2.47;;;17.70;99.90;;;;;;5126089;27;20044;-69
2023/07/28 03:21:37;;;;;;;3.78;2.03;;;17.70;99.90;;;;;;5091948;28;20130;-69
2023/07/28 03:24:03;;;;;;;7.28;2.60;;;17.80;99.90;;;;;;5090936;28;20051;-69
2023/07/28 03:26:29;;;;;;;6.13;2.22;;;17.80;99.90;;;;;;5093100;28;20047;-69
2023/07/28 03:28:55;;;;;;;7.07;2.47;;;17.80;99.90;;;;;;5126255;27;20052;-69
2023/07/28 03:31:20;;;;;;;5.28;3.08;;;17.80;99.90;;;;;;5114246;27;20137;-69
2023/07/28 03:33:46;;;;;;;5.43;2.58;;;17.80;99.90;;;;;;5072357;28;20485;-69
2023/07/28 03:36:12;;;;;;;8.75;3.45;;;17.80;99.90;;;;;;5072872;28;20044;-69
2023/07/28 03:38:38;;;;;;;12.07;3.30;;;17.80;99.90;;;;;;5070521;28;20041;-69
2023/07/28 03:41:04;;;;;;;5.78;3.33;;;17.80;99.90;;;;;;5072868;28;20102;-69
2023/07/28 03:43:29;;;;;;;5.75;2.17;;;17.80;99.90;;;;;;5072613;28;20067;-69
2023/07/28 03:45:55;;;;;;;7.63;3.00;;;17.80;99.90;;;;;;5070746;28;20048;-69
2023/07/28 03:48:21;;;;;;;4.97;1.90;;;17.80;99.90;;;;;;5071556;28;20051;-69
2023/07/28 03:50:46;;;;;;;4.80;2.38;;;17.80;99.90;;;;;;5070822;28;20052;-69
2023/07/28 03:53:12;;;;;;;6.03;2.63;;;17.80;99.90;;;;;;5070653;28;20048;-69
2023/07/28 03:55:38;;;;;;;13.80;3.65;;;17.80;99.90;;;;;;5071254;28;20477;-69
2023/07/28 03:58:03;;;;;;;7.32;2.40;;;17.80;99.90;;;;;;5073960;28;20064;-69
2023/07/28 04:00:29;;;;;;;5.60;2.33;;;17.80;99.90;;;;;;5091953;28;20097;-69
2023/07/28 04:02:55;;;;;;;6.13;2.35;;;17.80;99.90;;;;;;5092804;28;20044;-69
2023/07/28 04:05:21;;;;;;;6.88;2.97;;;17.70;99.90;;;;;;5092722;28;20074;-69
2023/07/28 04:07:46;;;;;;;4.72;2.00;;;17.80;99.90;;;;;;5090118;28;20135;-69
2023/07/28 04:10:12;;;;;;;6.43;2.88;;;17.80;99.90;;;;;;5092823;28;20536;-69
2023/07/28 04:12:37;;;;;;;4.97;2.25;;;17.80;99.90;;;;;;5090415;28;20040;-69
2023/07/28 04:15:04;;;;;;;7.13;3.17;;;17.80;99.90;;;;;;5091292;28;20067;-69
2023/07/28 04:17:29;;;;;;;5.60;2.38;;;17.80;99.90;;;;;;5091165;28;20047;-69
2023/07/28 04:19:55;;;;;;;6.07;2.75;;;17.80;99.90;;;;;;5091406;28;20044;-69
2023/07/28 04:22:21;;;;;;;5.18;1.77;;;17.80;99.90;;;;;;5091031;28;20115;-69
2023/07/28 04:24:47;;;;;;;4.95;2.70;;;17.80;99.90;;;;;;5090687;28;20082;-69
2023/07/28 04:27:14;;;;;;;5.32;2.40;;;17.80;99.90;;;;;;5091656;28;20044;-69
2023/07/28 04:29:39;;;;;;;5.57;2.28;;;17.80;99.90;;;;;;5090715;28;20520;-69
2023/07/28 04:32:06;;;;;;;7.53;1.70;;;17.80;99.90;;;;;;5091111;28;20063;-69
2023/07/28 04:34:35;;;;;;;4.63;2.10;;;17.80;99.90;;;;;;5090043;28;20096;-69
2023/07/28 04:37:01;;;;;;;4.28;1.98;;;17.80;99.90;;;;;;5092000;28;20055;-69
2023/07/28 04:39:26;;;;;;;7.82;1.73;;;17.80;99.90;;;;;;5091155;28;20044;-69
2023/07/28 04:41:52;;;;;;;6.88;2.17;;;17.90;99.90;;;;;;5089932;28;20040;-69
2023/07/28 04:44:19;;;;;;;4.60;1.77;;;17.80;99.90;;;;;;5092356;28;20036;-69
2023/07/28 04:46:47;;;;;;;4.10;1.98;;;17.80;99.90;;;;;;5091712;28;20040;-69
2023/07/28 04:49:13;;;;;;;5.25;2.22;;;17.90;99.90;;;;;;5091455;28;20392;-69
2023/07/28 04:51:39;;;;;;;5.30;2.30;;;17.90;99.90;;;;;;5091541;28;20048;-69
2023/07/28 04:54:04;;;;;;;4.35;2.00;;;17.80;99.90;;;;;;5092255;28;20046;-69
2023/07/28 04:56:30;;;;;;;4.28;2.22;;;17.80;99.90;;;;;;5123975;28;20067;-70
2023/07/28 04:58:55;;;;;;;5.32;2.60;;;17.90;99.90;;;;;;5090665;28;20122;-69
2023/07/28 05:01:21;;;;;;;5.35;2.03;;;17.80;99.90;;;;;;5124932;28;20123;-69
2023/07/28 05:03:47;;;;;;;4.05;1.77;;;17.90;99.90;;;;;;5091019;28;20077;-69
2023/07/28 05:06:13;;;;;;;4.35;2.40;;;17.80;99.90;;;;;;5124791;28;20038;-69
2023/07/28 05:08:38;;;;;;;5.53;2.15;;;17.90;99.90;;;;;;5091511;28;20064;-69
2023/07/28 05:11:04;;;;;;;5.68;2.60;;;17.90;99.90;;;;;;5091340;28;20074;-69
2023/07/28 05:13:30;;;;;;;6.75;2.95;;;17.90;99.90;;;;;;5107903;28;20077;-69
2023/07/28 05:15:55;;;;;;;4.88;2.78;;;17.90;99.90;;;;;;5089501;28;20043;-69
2023/07/28 05:18:21;;;;;;;4.78;2.15;;;17.80;99.90;;;;;;5125029;27;20048;-69
2023/07/28 05:20:47;;;;;;;6.95;3.42;;;17.80;99.90;;;;;;5128076;27;20488;-69
2023/07/28 05:23:12;;;;;;;5.32;2.88;;;17.80;99.90;;;;;;5094823;28;20040;-69
2023/07/28 05:25:38;;;;;;;6.90;3.55;;;17.80;99.90;;;;;;5095700;28;20108;-68
2023/07/28 05:28:04;;;;;;;5.95;2.83;;;17.80;99.90;;;;;;5095598;28;20043;-68
2023/07/28 05:30:29;;;;;;;6.38;3.13;;;17.80;99.90;;;;;;5127488;27;20036;-68
2023/07/28 05:32:55;;;;;;;8.50;3.47;;;17.90;99.90;;;;;;5095391;28;20111;-68
2023/07/28 05:35:21;;;;;;;5.95;3.50;;;17.80;99.90;;;;;;5095395;28;20071;-68
2023/07/28 05:37:47;;;;;;;4.65;2.58;;;17.80;99.90;;;;;;5127020;27;20044;-68
2023/07/28 05:40:12;;;;;;;4.38;2.10;;;17.90;99.90;;;;;;5128465;27;20090;-68
2023/07/28 05:42:38;;;;;;;4.80;3.28;;;17.80;99.90;;;;;;5094343;28;20043;-68
2023/07/28 05:45:05;;;;;;;4.18;2.60;;;17.90;99.90;;;;;;5127214;27;20507;-69
2023/07/28 05:47:30;;;;;;;6.18;3.75;;;17.80;99.90;;;;;;5095038;28;20513;-68
2023/07/28 05:49:56;;;;;;;6.75;2.90;;;17.80;99.90;;;;;;5094525;28;20032;-68
2023/07/28 05:52:24;;;;;;;5.40;3.40;;;17.90;99.90;;;;;;5127253;27;20048;-68
2023/07/28 05:54:50;;;;;;;5.30;3.13;;;17.80;99.90;;;;;;5094781;28;20052;-69
2023/07/28 05:57:15;;;;;;;8.10;3.22;;;17.90;99.90;;;;;;5128068;27;20036;-68
2023/07/28 05:59:41;;;;;;;6.45;3.05;;;17.90;99.90;;;;;;5093732;28;20048;-68
2023/07/28 06:02:07;;;;;;;5.78;2.83;;;17.90;99.90;;;;;;5093835;28;20036;-68
2023/07/28 06:04:33;;;;;;;5.10;3.22;;;18.00;99.90;;;;;;5110229;28;20590;-68
2023/07/28 06:06:58;;;;;;;6.80;2.78;;;18.00;99.90;;;;;;5094161;28;20055;-68
2023/07/28 06:09:24;;;;;;;6.82;3.80;;;18.00;99.90;;;;;;5094857;28;20038;-68
2023/07/28 06:11:50;;;;;;;6.05;3.65;;;18.00;99.90;;;;;;5093663;28;20032;-68
2023/07/28 06:14:15;;;;;;;5.10;2.47;;;18.00;99.90;;;;;;5092709;28;20469;-68
2023/07/28 06:16:41;;;;;;;4.40;2.78;;;18.00;99.90;;;;;;5075611;28;20040;-68
2023/07/28 06:19:08;;;;;;;2.88;1.50;;;18.10;99.90;;;;;;5094440;28;20096;-68
2023/07/28 06:21:33;;;;;;;2.63;1.13;;;18.10;99.90;;;;;;5093753;28;20036;-69
2023/07/28 06:23:59;;;;;;;4.32;2.22;;;18.10;99.90;;;;;;5089091;28;20043;-69
2023/07/28 06:26:25;;;;;;;4.03;1.52;;;18.10;99.90;;;;;;5089772;28;20040;-69
2023/07/28 06:28:51;;;;;;;4.13;2.00;;;18.20;99.90;;;;;;5091224;28;20057;-69
2023/07/28 06:31:16;;;;;;;4.50;2.22;;;18.30;99.90;;;;;;5089919;28;20047;-69
2023/07/28 06:33:42;;;;;;;4.78;1.33;;;18.30;99.90;;;;;;5088410;28;20507;-69
2023/07/28 06:36:08;;;;;;;4.85;2.13;;;18.30;99.90;;;;;;5113071;27;20122;-69
2023/07/28 06:38:33;;;;;;;4.25;1.98;;;18.50;99.90;;;;;;5086202;28;20043;-69
2023/07/28 06:41:00;;;;;;;2.90;1.55;;;18.50;99.90;;;;;;5090502;28;20083;-69
2023/07/28 06:43:26;;;;;;;4.25;1.77;;;18.50;99.90;;;;;;5090350;28;20071;-69
2023/07/28 06:45:53;;;;;;;3.13;1.42;;;18.50;99.90;;;;;;5090079;28;20123;-69
2023/07/28 06:48:18;;;;;;;3.80;1.30;;;18.50;99.90;;;;;;5089102;28;20032;-69
2023/07/28 06:50:44;;;;;;;3.63;1.38;;;18.40;99.90;;;;;;5072387;28;20527;-69
2023/07/28 06:53:10;;;;;;;3.63;1.95;;;18.50;99.90;;;;;;5117319;27;20400;-69
2023/07/28 06:55:38;;;;;;;5.40;2.42;;;18.40;99.90;;;;;;5090754;28;20105;-69
2023/07/28 06:58:05;;;;;;;4.03;1.85;;;18.40;99.90;;;;;;5089496;28;20052;-69
2023/07/28 07:00:31;;;;;;;3.00;1.77;;;18.40;99.90;;;;;;5089796;28;20106;-69
2023/07/28 07:02:57;;;;;;;3.00;1.33;;;18.40;99.90;;;;;;5090574;28;20066;-69
2023/07/28 07:05:23;;;;;;;3.60;1.63;;;18.40;99.90;;;;;;5090126;28;20070;-69
2023/07/28 07:07:49;;;;;;;2.05;1.02;;;18.40;99.90;;;;;;5091004;28;20526;-69
2023/07/28 07:10:14;;;;;;;2.58;1.40;;;18.50;99.90;;;;;;5088502;28;20036;-68
2023/07/28 07:12:40;;;;;;;3.17;1.08;;;18.50;99.90;;;;;;5089269;28;20377;-69
2023/07/28 07:15:07;;;;;;;4.47;1.77;;;18.40;99.90;;;;;;5115034;27;20681;-69
2023/07/28 07:17:33;;;;;;;5.40;1.85;;;18.50;99.90;;;;;;5085780;28;20139;-69
2023/07/28 07:19:59;;;;;;;3.67;1.38;;;18.50;99.90;;;;;;5087811;28;20559;-69
2023/07/28 07:22:25;;;;;;;3.20;1.20;;;18.50;99.90;;;;;;5123151;27;20055;-69
2023/07/28 07:24:50;;;;;;;3.25;1.35;;;18.40;99.90;;;;;;5088040;28;20535;-69
2023/07/28 07:27:16;;;;;;;8.27;3.17;;;18.50;99.90;;;;;;5089182;28;20051;-70
2023/07/28 07:29:42;;;;;;;8.52;4.78;;;18.40;99.90;;;;;;5088076;28;20118;-69
2023/07/28 07:32:09;;;;;;;9.15;4.60;;;18.40;99.90;;;;;;5122922;27;20459;-69
2023/07/28 07:34:37;;;;;;;8.77;5.10;;;18.40;99.90;;;;;;5072074;28;20062;-70
2023/07/28 07:37:03;;;;;;;7.40;4.60;;;18.40;99.90;;;;;;5086376;28;20047;-69
2023/07/28 07:39:28;;;;;;;7.63;4.20;;;18.40;99.90;;;;;;5089330;28;20400;-69
2023/07/28 07:41:54;;;;;;;432.77;224.57;;;18.50;99.90;;;;;;5088852;28;20032;-69
2023/07/28 07:44:20;;;;;;;1513.80;762.42;;;18.40;99.90;;;;;;5089822;28;20072;-70
2023/07/28 07:46:45;;;;;;;11.20;6.13;;;18.40;99.90;;;;;;5088430;28;20055;-69
2023/07/28 07:49:11;;;;;;;11.60;7.22;;;18.40;99.90;;;;;;5089210;28;20058;-70
2023/07/28 07:51:37;;;;;;;12.98;10.05;;;18.60;99.90;;;;;;5087863;28;20394;-69
2023/07/28 07:54:02;;;;;;;11.13;9.15;;;18.50;99.90;;;;;;5088333;28;20079;-69
2023/07/28 07:56:28;;;;;;;12.85;10.35;;;18.50;99.90;;;;;;5088905;28;20044;-70
2023/07/28 07:58:54;;;;;;;9.32;5.85;;;18.40;99.90;;;;;;5087738;28;20044;-70
2023/07/28 08:01:20;;;;;;;10.90;6.55;;;18.40;99.90;;;;;;5088978;28;20097;-69
2023/07/28 08:03:46;;;;;;;10.98;5.55;;;18.50;99.90;;;;;;5089701;28;20131;-69
2023/07/28 08:06:12;;;;;;;8.80;5.05;;;18.60;99.90;;;;;;5071200;28;20118;-70
2023/07/28 08:08:38;;;;;;;7.88;4.53;;;18.60;99.90;;;;;;5078026;28;20040;-70
2023/07/28 08:11:04;;;;;;;7.03;3.75;;;18.70;99.90;;;;;;5082024;28;20051;-69
2023/07/28 08:13:30;;;;;;;10.23;6.13;;;18.80;99.90;;;;;;5087803;28;20036;-70
2023/07/28 08:15:55;;;;;;;17.35;15.05;;;18.90;99.90;;;;;;5089717;28;20038;-69
2023/07/28 08:18:21;;;;;;;9.98;7.68;;;19.00;99.90;;;;;;5089069;28;20043;-69
2023/07/28 08:20:47;;;;;;;11.75;9.18;;;19.10;99.90;;;;;;5070621;28;20062;-70
2023/07/28 08:23:12;;;;;;;14.80;10.77;;;19.20;99.90;;;;;;5089603;28;20032;-69
2023/07/28 08:25:38;;;;;;;10.80;8.80;;;19.20;99.90;;;;;;5113507;27;20036;-69
2023/07/28 08:28:04;;;;;;;11.30;8.82;;;19.10;99.90;;;;;;5087153;28;20086;-69
2023/07/28 08:30:31;;;;;;;12.88;9.85;;;19.10;99.90;;;;;;5090005;28;20079;-69
2023/07/28 08:32:58;;;;;;;13.07;11.02;;;19.10;99.90;;;;;;5087792;28;20093;-69
2023/07/28 08:35:24;;;;;;;14.57;10.02;;;19.10;99.90;;;;;;5086975;28;20050;-69
2023/07/28 08:37:50;;;;;;;12.65;10.25;;;19.10;99.90;;;;;;5071335;28;20040;-69
2023/07/28 08:40:16;;;;;;;12.18;9.55;;;19.10;99.90;;;;;;5098303;28;20032;-62
2023/07/28 08:42:42;;;;;;;13.65;9.65;;;19.00;99.90;;;;;;5087654;28;20063;-62
2023/07/28 08:45:08;;;;;;;10.93;8.32;;;19.00;99.90;;;;;;5087738;28;20543;-62
2023/07/28 08:47:35;;;;;;;11.07;8.60;;;19.00;99.90;;;;;;5087687;28;20032;-62
2023/07/28 08:50:01;;;;;;;10.93;8.20;;;19.00;99.90;;;;;;5088215;28;20084;-62
2023/07/28 08:52:27;;;;;;;11.73;7.45;;;19.00;99.90;;;;;;5089280;28;20088;-62
2023/07/28 08:54:53;;;;;;;11.32;8.15;;;19.10;99.90;;;;;;5104167;28;20472;-63
2023/07/28 08:57:20;;;;;;;10.38;7.63;;;19.20;99.90;;;;;;5098573;28;20039;-63
2023/07/28 08:59:49;;;;;;;9.90;6.53;;;19.20;99.90;;;;;;5091810;28;20052;-62
2023/07/28 09:02:17;;;;;;;9.57;6.18;;;19.30;99.90;;;;;;5095359;28;20122;-62
2023/07/28 09:04:48;;;;;;;10.73;6.47;;;19.50;99.90;;;;;;5094464;28;20040;-61
2023/07/28 09:07:14;;;;;;;9.07;6.55;;;19.70;99.90;;;;;;5094638;28;20036;-64
2023/07/28 09:09:40;;;;;;;7.88;5.70;;;19.80;99.90;;;;;;5095045;28;20051;-64
2023/07/28 09:12:08;;;;;;;8.70;5.90;;;20.00;99.90;;;;;;5106291;28;20039;-63
2023/07/28 09:14:36;;;;;;;8.68;6.05;;;20.00;99.90;;;;;;5094525;28;20050;-65
2023/07/28 09:17:11;;;;;;;7.65;6.10;;;20.00;99.90;;;;;;5093534;28;20127;-63
2023/07/28 09:19:53;;;;;;;7.20;5.90;;;20.00;99.90;;;;;;5096021;28;20040;-64
2023/07/28 09:22:20;;;;;;;7.82;5.80;;;19.90;99.90;;;;;;5104852;28;20036;-64
2023/07/28 09:24:47;;;;;;;7.95;5.43;;;19.90;99.90;;;;;;5102117;28;20036;-64
2023/07/28 09:27:25;;;;;;;7.97;5.57;;;19.90;99.90;;;;;;5100429;28;20032;-64
2023/07/28 09:29:55;;;;;;;9.20;6.28;;;19.90;99.90;;;;;;5108080;28;20040;-61
2023/07/28 09:32:36;;;;;;;7.43;6.32;;;19.90;99.90;;;;;;5114921;27;20036;-64
2023/07/28 09:35:10;;;;;;;10.93;5.72;;;20.10;99.90;;;;;;5074129;28;20040;-64
2023/07/28 09:37:44;;;;;;;7.60;5.45;;;20.40;99.90;;;;;;5074443;28;20084;-63
2023/07/28 09:40:12;;;;;;;7.93;5.38;;;20.50;99.90;;;;;;5057122;28;20041;-63
2023/07/28 09:42:42;;;;;;;7.80;5.65;;;20.50;99.90;;;;;;5107259;28;20048;-64
2023/07/28 09:45:10;;;;;;;7.28;4.82;;;20.40;99.90;;;;;;5074231;28;20048;-63
2023/07/28 09:47:37;;;;;;;6.75;4.43;;;20.40;99.90;;;;;;5074881;28;20117;-63
2023/07/28 09:50:04;;;;;;;7.40;4.80;;;20.50;99.90;;;;;;5107404;28;20047;-64
2023/07/28 09:52:58;;;;;;;8.52;5.35;;;20.50;99.90;;;;;;5106578;28;20044;-63
2023/07/28 09:55:24;;;;;;;6.63;4.57;;;20.60;99.90;;;;;;5104516;28;20132;-63
2023/07/28 09:57:53;;;;;;;6.07;3.90;;;20.60;99.90;;;;;;5073521;28;20041;-63
2023/07/28 10:00:22;;;;;;;5.35;3.45;;;20.60;99.90;;;;;;5075102;28;20056;-63
2023/07/28 10:02:48;;;;;;;5.78;3.72;;;20.70;99.90;;;;;;5073368;28;20097;-63
2023/07/28 10:05:15;;;;;;;5.43;3.45;;;20.90;99.90;;;;;;5073627;28;20497;-64
2023/07/28 10:07:45;;;;;;;5.28;3.42;;;21.00;99.90;;;;;;5056743;28;20393;-63
2023/07/28 10:10:12;;;;;;;5.78;2.92;;;21.20;99.90;;;;;;5073734;28;20083;-63
2023/07/28 10:12:51;;;;;;;5.40;3.50;;;21.20;99.90;;;;;;5072419;28;20539;-63
2023/07/28 10:15:20;;;;;;;5.25;3.15;;;21.10;99.90;;;;;;5074879;28;20437;-63
2023/07/28 10:17:55;;;;;;;5.28;3.22;;;21.20;99.90;;;;;;5074186;28;20401;-63
2023/07/28 10:20:38;;;;;;;7.43;3.97;;;21.20;99.90;;;;;;5073773;28;20043;-63
2023/07/28 10:23:20;;;;;;;5.30;3.25;;;21.30;99.90;;;;;;5106900;28;20087;-63
2023/07/28 10:25:45;;;;;;;5.88;3.25;;;21.30;99.90;;;;;;5105604;28;20044;-63
2023/07/28 10:28:36;;;;;;;4.90;2.70;;;21.30;99.90;;;;;;5074562;28;20040;-63
2023/07/28 10:31:02;;;;;;;5.35;2.42;;;21.40;99.90;;;;;;5106687;28;20120;-63
2023/07/28 10:33:34;;;;;;;5.55;2.58;;;21.60;99.90;;;;;;5073279;28;20067;-63
2023/07/28 10:36:15;;;;;;;6.40;2.40;;;21.80;99.90;;;;;;5072610;28;20484;-63
2023/07/28 10:38:43;;;;;;;4.78;3.05;;;22.10;99.90;;;;;;5073665;28;20050;-63
2023/07/28 10:41:18;;;;;;;5.70;2.38;;;22.20;99.90;;;;;;5073231;28;20538;-63
2023/07/28 10:43:45;;;;;;;6.00;2.85;;;22.20;99.90;;;;;;5106074;28;20562;-63
2023/07/28 10:46:14;;;;;;;4.47;2.75;;;22.10;99.90;;;;;;5072890;28;20139;-63
2023/07/28 10:48:45;;;;;;;6.53;3.20;;;22.00;99.90;;;;;;5105497;28;20044;-63
2023/07/28 10:51:19;;;;;;;5.25;3.42;;;22.00;99.90;;;;;;5106406;28;20053;-63
2023/07/28 10:53:44;;;;;;;4.40;2.97;;;22.00;99.90;;;;;;5072575;28;20063;-63
2023/07/28 10:56:11;;;;;;;4.95;2.55;;;22.00;99.90;;;;;;5072484;28;20274;-63
2023/07/28 10:58:37;;;;;;;5.18;3.03;;;22.00;99.90;;;;;;5106081;28;20508;-63
2023/07/28 11:01:03;;;;;;;5.30;3.40;;;21.90;99.90;;;;;;5072749;28;20036;-63
2023/07/28 11:03:29;;;;;;;5.55;3.10;;;21.80;99.90;;;;;;5088946;28;20393;-63
2023/07/28 11:05:56;;;;;;;5.32;2.90;;;21.80;99.90;;;;;;5105868;28;20045;-63
2023/07/28 11:08:22;;;;;;;5.57;2.88;;;21.90;99.90;;;;;;5072668;28;20036;-63
2023/07/28 11:10:48;;;;;;;4.38;2.42;;;22.10;99.90;;;;;;5105776;28;20041;-63
2023/07/28 11:13:14;;;;;;;5.80;2.75;;;22.10;99.90;;;;;;5072240;28;20558;-63
2023/07/28 11:15:40;;;;;;;4.93;2.92;;;22.20;99.90;;;;;;5104710;28;20048;-63
2023/07/28 11:18:11;;;;;;;4.75;2.38;;;22.30;99.90;;;;;;5072662;28;20393;-63
2023/07/28 11:20:36;;;;;;;4.38;2.38;;;22.30;99.90;;;;;;5105717;28;20044;-63
2023/07/28 11:23:04;;;;;;;4.78;2.58;;;22.30;99.90;;;;;;5054243;28;20049;-63
2023/07/28 11:25:31;;;;;;;6.97;2.35;;;22.30;99.90;;;;;;5055266;28;20067;-62
2023/07/28 11:27:57;;;;;;;3.70;1.88;;;22.40;99.90;;;;;;5071646;28;20047;-63
2023/07/28 11:30:23;;;;;;;4.50;2.42;;;22.50;99.90;;;;;;5072330;28;20481;-63
2023/07/28 11:32:51;;;;;;;3.85;2.10;;;22.50;99.90;;;;;;5071368;28;20037;-63
2023/07/28 11:35:18;;;;;;;4.20;2.17;;;22.60;99.90;;;;;;5072002;28;20394;-63
2023/07/28 11:37:47;;;;;;;4.68;2.30;;;22.50;99.90;;;;;;5053530;28;20084;-63
2023/07/28 11:40:15;;;;;;;3.53;2.00;;;22.60;99.90;;;;;;5073015;28;20564;-63
2023/07/28 11:42:45;;;;;;;4.38;1.77;;;22.60;99.90;;;;;;5104976;28;20489;-63
2023/07/28 11:45:13;;;;;;;4.32;2.20;;;22.60;99.90;;;;;;5055070;28;20048;-62
2023/07/28 11:47:39;;;;;;;4.57;2.20;;;22.60;99.90;;;;;;5072581;28;20043;-63
2023/07/28 11:50:04;;;;;;;4.80;2.00;;;22.60;99.90;;;;;;5070346;28;20394;-63
2023/07/28 11:52:35;;;;;;;4.05;2.10;;;22.60;99.90;;;;;;5105050;28;20084;-63
2023/07/28 11:55:04;;;;;;;4.22;2.17;;;22.50;99.90;;;;;;5072666;28;20094;-63
2023/07/28 11:57:30;;;;;;;4.85;2.58;;;22.40;99.90;;;;;;5054024;28;20097;-62
2023/07/28 11:59:57;;;;;;;4.63;2.40;;;22.40;99.90;;;;;;5071313;28;20048;-62
2023/07/28 12:02:27;;;;;;;4.95;2.70;;;22.40;99.90;;;;;;5105441;28;20063;-63
2023/07/28 12:04:54;;;;;;;3.80;2.08;;;22.30;99.90;;;;;;5103881;28;20041;-63
2023/07/28 12:07:28;;;;;;;4.40;1.85;;;22.40;99.90;;;;;;5071509;28;20036;-63
2023/07/28 12:10:00;;;;;;;4.50;2.10;;;22.40;99.90;;;;;;5072475;28;20121;-62
2023/07/28 12:12:28;;;;;;;3.47;1.85;;;22.40;99.90;;;;;;5070413;28;20042;-63
2023/07/28 12:14:55;;;;;;;5.47;2.47;;;22.40;99.90;;;;;;5072111;28;20048;-62
2023/07/28 12:17:23;;;;;;;6.15;2.63;;;22.40;99.90;;;;;;5072449;28;20051;-62
2023/07/28 12:20:14;;;;;;;5.30;2.03;;;22.40;99.90;;;;;;5103578;28;20040;-63
2023/07/28 12:22:41;;;;;;;5.55;2.53;;;22.40;99.90;;;;;;5071855;28;20178;-62
2023/07/28 12:25:07;;;;;;;4.30;2.20;;;22.40;99.90;;;;;;5071881;28;20373;-62
2023/07/28 12:27:33;;;;;;;4.78;2.08;;;22.50;99.90;;;;;;5104432;28;20041;-63
2023/07/28 12:29:59;;;;;;;4.78;1.60;;;22.60;99.90;;;;;;5104506;28;20041;-63
2023/07/28 12:32:25;;;;;;;6.07;2.17;;;22.70;99.90;;;;;;5071535;28;20032;-63
2023/07/28 12:34:51;;;;;;;4.30;1.90;;;22.90;99.90;;;;;;5070842;28;20106;-62
2023/07/28 12:37:18;;;;;;;4.00;1.80;;;22.90;99.90;;;;;;5072255;28;20042;-62
2023/07/28 12:39:44;;;;;;;4.15;1.60;;;22.90;99.90;;;;;;5103500;28;20095;-63
2023/07/28 12:42:10;;;;;;;3.97;1.65;;;22.90;99.90;;;;;;5071294;28;20056;-63